Time;durP1;ratioP1;P1;durP2;ratioP2;P2;SDS_P1;SDS_P2;PMS_P1;PMS_P2;Temp;Humidity;BMP_temperature;BMP_pressure;BME280_temperature;BME280_humidity;BME280_pressure;Samples;Min_cycle;Max_cycle;Signal;HPM_P1;HPM_P2
2021/06/15 00:00:04;;;;;;;3.55;3.17;;;;;;;37.95;48.41;161190.70;1770845;81;21227;-79
2021/06/15 00:02:37;;;;;;;3.67;3.05;;;;;;;37.92;48.43;161182.66;1771128;81;21178;-79
2021/06/15 00:05:10;;;;;;;4.22;3.17;;;;;;;37.91;48.48;161179.97;1771515;81;21214;-79
2021/06/15 00:07:43;;;;;;;4.65;3.08;;;;;;;37.91;48.51;161179.97;1770468;81;21257;-79
2021/06/15 00:10:21;;;;;;;3.72;3.12;;;;;;;37.85;48.52;161165.23;1770526;81;21179;-79
2021/06/15 00:12:55;;;;;;;6.33;3.60;;;;;;;37.85;48.52;161165.23;1771510;81;21226;-80
2021/06/15 00:15:28;;;;;;;4.95;3.47;;;;;;;37.93;48.54;161186.66;1771109;81;21226;-79
2021/06/15 00:18:00;;;;;;;4.25;3.20;;;;;;;37.91;48.49;161179.97;1762648;81;21372;-79
2021/06/15 00:20:33;;;;;;;4.35;3.20;;;;;;;37.92;48.44;161182.66;1771448;81;21207;-79
2021/06/15 00:23:07;;;;;;;4.87;3.10;;;;;;;37.92;48.41;161183.97;1771449;81;21178;-79
2021/06/15 00:25:39;;;;;;;4.28;3.02;;;;;;;37.88;48.49;161171.92;1771604;81;21179;-79
2021/06/15 00:28:11;;;;;;;4.55;3.50;;;;;;;37.87;48.51;161170.59;1770656;81;21183;-79
2021/06/15 00:30:43;;;;;;;4.25;3.50;;;;;;;37.81;48.63;161153.19;1770524;81;21253;-79
2021/06/15 00:33:16;;;;;;;8.18;3.58;;;;;;;37.81;48.60;161154.50;1770538;81;21171;-79
2021/06/15 00:35:48;;;;;;;6.10;3.90;;;;;;;37.79;48.65;161147.81;1771510;81;21509;-79
2021/06/15 00:38:20;;;;;;;6.40;3.77;;;;;;;37.74;48.77;161134.34;1770605;81;21257;-79
2021/06/15 00:40:53;;;;;;;6.78;3.42;;;;;;;37.72;48.82;161129.03;1771695;79;21853;-79
2021/06/15 00:43:25;;;;;;;5.92;3.55;;;;;;;37.72;48.80;161129.03;1771524;81;21710;-79
2021/06/15 00:45:57;;;;;;;5.47;3.80;;;;;;;37.69;48.86;161122.31;1771554;80;21202;-79
2021/06/15 00:48:34;;;;;;;5.12;3.52;;;;;;;37.67;48.91;161116.98;1748493;81;21269;-79
2021/06/15 00:51:09;;;;;;;4.20;3.42;;;;;;;37.65;49.01;161111.62;1729102;83;21234;-78
2021/06/15 00:53:41;;;;;;;5.80;3.40;;;;;;;37.66;49.03;161112.94;1729142;83;21364;-79
2021/06/15 00:56:15;;;;;;;5.05;3.40;;;;;;;37.63;49.06;161104.89;1730472;83;21186;-80
2021/06/15 00:58:47;;;;;;;5.22;3.33;;;;;;;37.53;49.28;161078.11;1731342;83;21190;-80
2021/06/15 01:01:20;;;;;;;7.15;3.45;;;;;;;37.53;49.33;161079.48;1731203;83;21420;-80
2021/06/15 01:03:54;;;;;;;5.80;4.17;;;;;;;37.59;49.24;161094.20;1731231;81;21875;-80
2021/06/15 01:06:44;;;;;;;4.55;3.50;;;;;;;37.61;49.16;161100.89;1717360;83;21182;-80
2021/06/15 01:09:27;;;;;;;3.95;3.55;;;;;;;37.61;49.19;161099.58;1731203;83;21368;-79
2021/06/15 01:12:31;;;;;;;9.00;4.00;;;;;;;37.60;49.12;161096.89;1731263;83;21238;-80
2021/06/15 01:15:17;;;;;;;4.25;3.60;;;;;;;37.58;49.08;161091.53;1729021;83;21206;-79
2021/06/15 01:17:57;;;;;;;5.35;3.83;;;;;;;37.52;49.23;161075.42;1737197;82;21229;-80
2021/06/15 01:20:40;;;;;;;5.10;3.70;;;;;;;37.43;49.40;161051.34;1732144;82;21364;-79
2021/06/15 01:23:26;;;;;;;4.92;4.08;;;;;;;37.42;49.46;161048.66;1736974;82;21340;-79
2021/06/15 01:26:24;;;;;;;4.60;3.42;;;;;;;37.41;49.45;161045.97;1736987;82;21841;-79
2021/06/15 01:29:03;;;;;;;4.17;3.30;;;;;;;37.44;49.37;161054.02;1733199;82;21187;-79
2021/06/15 01:31:49;;;;;;;4.90;3.55;;;;;;;37.37;49.55;161036.61;1731198;83;21836;-79
2021/06/15 01:34:28;;;;;;;4.83;3.92;;;;;;;37.41;49.49;161045.97;1731119;83;21396;-79
2021/06/15 01:37:20;;;;;;;4.87;3.67;;;;;;;37.47;49.36;161062.06;1731248;83;21782;-79
2021/06/15 01:40:03;;;;;;;4.33;3.83;;;;;;;37.49;49.30;161067.44;1731414;83;21277;-79
2021/06/15 01:42:54;;;;;;;7.40;4.35;;;;;;;37.45;49.38;161056.70;1730334;82;21266;-79
2021/06/15 01:45:43;;;;;;;6.55;3.85;;;;;;;37.42;49.40;161050.03;1731355;83;21387;-79
2021/06/15 01:48:31;;;;;;;4.15;3.75;;;;;;;37.40;49.45;161044.66;1749612;81;21682;-79
2021/06/15 01:51:05;;;;;;;5.45;4.00;;;;;;;37.46;49.35;161059.38;1770607;81;21183;-79
2021/06/15 01:53:46;;;;;;;5.70;4.00;;;;;;;37.47;49.25;161063.38;1770737;81;21179;-79
2021/06/15 01:56:19;;;;;;;;;;;;;;;37.47;49.25;161062.06;1773907;79;21368;-79
2021/06/15 01:58:53;;;;;;;4.95;4.20;;;;;;;37.48;49.20;161064.75;1771982;80;20242;-79
2021/06/15 02:01:28;;;;;;;5.17;4.25;;;;;;;37.20;49.76;160989.69;1768647;81;21400;-79
2021/06/15 02:04:02;;;;;;;5.90;4.20;;;;;;;37.32;49.56;161021.83;1768874;81;21179;-78
2021/06/15 02:06:35;;;;;;;6.08;4.17;;;;;;;37.22;49.75;160995.06;1769411;81;21233;-79
2021/06/15 02:09:07;;;;;;;5.10;4.35;;;;;;;37.23;49.74;160997.73;1771335;81;21310;-79
2021/06/15 02:11:59;;;;;;;5.62;4.30;;;;;;;37.29;49.60;161015.14;1718280;82;21372;-78
2021/06/15 02:14:50;;;;;;;5.50;4.22;;;;;;;37.40;49.35;161044.66;1734754;82;21376;-79
2021/06/15 02:17:36;;;;;;;5.05;3.90;;;;;;;37.40;49.32;161043.28;1753219;81;21332;-80
2021/06/15 02:20:16;;;;;;;5.07;4.03;;;;;;;37.33;49.44;161025.83;1754391;81;21298;-79
2021/06/15 02:22:51;;;;;;;5.15;4.08;;;;;;;37.34;49.46;161028.56;1744179;81;21208;-79
2021/06/15 02:25:30;;;;;;;5.45;4.58;;;;;;;37.31;49.50;161020.52;1697410;83;21182;-80
2021/06/15 02:28:03;;;;;;;6.10;4.08;;;;;;;37.30;49.56;161016.47;1688394;82;21359;-79
2021/06/15 02:30:36;;;;;;;4.58;4.03;;;;;;;37.25;49.66;161003.09;1718311;83;21377;-80
2021/06/15 02:33:17;;;;;;;7.78;4.30;;;;;;;37.25;49.76;161004.41;1707877;83;21744;-79
2021/06/15 02:35:57;;;;;;;6.60;4.17;;;;;;;37.24;49.79;161000.42;1690860;83;21179;-79
2021/06/15 02:38:43;;;;;;;6.77;4.57;;;;;;;37.23;49.79;160997.73;1723593;83;21333;-79
2021/06/15 02:41:16;;;;;;;4.87;3.92;;;;;;;37.31;49.60;161020.52;1716834;82;21872;-79
2021/06/15 02:43:50;;;;;;;5.00;4.40;;;;;;;37.26;49.68;161005.78;1723041;82;21407;-80
2021/06/15 02:46:23;;;;;;;6.65;4.20;;;;;;;37.23;49.77;160997.73;1743482;81;21208;-79
2021/06/15 02:48:58;;;;;;;4.22;3.83;;;;;;;37.25;49.73;161003.09;1746874;81;21204;-80
2021/06/15 02:51:34;;;;;;;5.22;3.98;;;;;;;37.21;49.79;160992.37;1769193;81;21227;-79
2021/06/15 02:54:25;;;;;;;4.87;4.17;;;;;;;37.18;49.87;160984.33;1769411;81;21246;-79
2021/06/15 02:56:58;;;;;;;6.83;4.00;;;;;;;37.23;49.79;160997.73;1769078;81;21725;-79
2021/06/15 02:59:30;;;;;;;4.58;3.98;;;;;;;37.22;49.84;160995.06;1769142;81;21310;-79
2021/06/15 03:02:03;;;;;;;6.58;4.08;;;;;;;37.14;50.00;160973.66;1770224;81;21750;-79
2021/06/15 03:04:38;;;;;;;4.30;3.45;;;;;;;37.11;50.13;160966.91;1769277;80;21765;-80
2021/06/15 03:07:11;;;;;;;4.00;3.67;;;;;;;37.12;50.13;160968.28;1770471;81;21275;-80
2021/06/15 03:09:44;;;;;;;5.78;4.03;;;;;;;37.09;50.30;160960.23;1769001;81;21190;-79
2021/06/15 03:12:22;;;;;;;4.10;3.70;;;;;;;37.09;50.36;160961.56;1768980;80;21220;-80
2021/06/15 03:15:07;;;;;;;5.87;4.00;;;;;;;37.18;50.25;160984.33;1770097;81;21210;-80
2021/06/15 03:17:44;;;;;;;4.45;3.77;;;;;;;37.24;50.18;161000.42;1763728;81;22124;-79
2021/06/15 03:20:17;;;;;;;4.50;4.08;;;;;;;37.24;50.17;161001.73;1770375;80;21349;-79
2021/06/15 03:23:13;;;;;;;5.45;3.98;;;;;;;37.25;50.08;161004.41;1746150;81;21172;-78
2021/06/15 03:25:46;;;;;;;4.70;4.12;;;;;;;37.27;50.06;161009.78;1740785;81;21268;-79
2021/06/15 03:28:26;;;;;;;5.10;4.08;;;;;;;37.26;50.14;161005.78;1740540;81;21739;-80
2021/06/15 03:31:01;;;;;;;5.25;3.85;;;;;;;37.21;50.23;160992.37;1766218;81;21821;-78
2021/06/15 03:33:36;;;;;;;5.50;4.03;;;;;;;37.10;50.55;160962.92;1771552;81;21207;-79
2021/06/15 03:36:10;;;;;;;5.92;4.12;;;;;;;37.09;50.61;160961.56;1771178;80;21254;-78
2021/06/15 03:38:43;;;;;;;4.33;3.80;;;;;;;37.12;50.67;160968.28;1763181;81;21804;-79
2021/06/15 03:41:17;;;;;;;5.62;3.87;;;;;;;37.20;50.52;160989.69;1770424;81;21166;-79
2021/06/15 03:43:57;;;;;;;4.78;3.67;;;;;;;37.19;50.55;160988.37;1771551;81;21318;-79
2021/06/15 03:46:30;;;;;;;3.83;3.52;;;;;;;37.21;50.58;160992.37;1770596;81;21301;-78
2021/06/15 03:49:04;;;;;;;5.15;4.03;;;;;;;37.22;50.67;160996.38;1771434;81;21365;-78
2021/06/15 03:51:44;;;;;;;6.22;3.85;;;;;;;37.22;50.69;160996.38;1773001;81;21238;-79
2021/06/15 03:54:16;;;;;;;4.53;4.03;;;;;;;37.20;50.78;160991.06;1768243;79;21206;-78
2021/06/15 03:57:12;;;;;;;4.85;4.05;;;;;;;37.20;50.85;160989.69;1756799;80;21306;-78
2021/06/15 03:59:59;;;;;;;4.65;4.20;;;;;;;37.27;50.82;161008.41;1716439;81;21174;-78
2021/06/15 04:02:33;;;;;;;4.67;4.00;;;;;;;37.26;50.88;161007.09;1704664;82;21770;-77
2021/06/15 04:05:08;;;;;;;4.50;3.85;;;;;;;37.25;50.94;161003.09;1712718;82;21264;-79
2021/06/15 04:07:42;;;;;;;5.08;4.08;;;;;;;37.33;50.82;161025.83;1715160;82;21186;-79
2021/06/15 04:10:16;;;;;;;6.15;4.60;;;;;;;37.31;50.85;161020.52;1746424;79;21333;-79
2021/06/15 04:12:49;;;;;;;4.42;3.92;;;;;;;37.34;50.90;161028.56;1743869;81;21321;-78
2021/06/15 04:15:24;;;;;;;5.70;4.42;;;;;;;37.42;50.70;161050.03;1744475;81;21230;-77
2021/06/15 04:18:00;;;;;;;4.70;4.25;;;;;;;37.39;50.76;161040.59;1759590;79;21365;-77
2021/06/15 04:20:39;;;;;;;6.42;4.65;;;;;;;37.33;51.06;161024.50;1742246;82;21336;-77
2021/06/15 04:23:11;;;;;;;5.12;4.03;;;;;;;37.34;51.00;161027.19;1768852;81;21790;-78
2021/06/15 04:25:44;;;;;;;5.10;3.92;;;;;;;37.38;50.94;161039.28;1773122;81;21372;-78
2021/06/15 04:28:17;;;;;;;6.00;4.22;;;;;;;37.40;50.92;161044.66;1773093;81;21175;-77
2021/06/15 04:30:51;;;;;;;5.17;4.33;;;;;;;37.45;50.84;161056.70;1773271;81;21214;-77
2021/06/15 04:33:26;;;;;;;5.05;4.28;;;;;;;37.49;50.74;161068.75;1773171;81;21376;-78
2021/06/15 04:36:00;;;;;;;4.80;4.37;;;;;;;37.50;50.67;161070.13;1773181;81;21269;-77
2021/06/15 04:38:45;;;;;;;4.67;4.20;;;;;;;37.55;50.59;161083.47;1773125;81;21428;-78
2021/06/15 04:41:28;;;;;;;5.40;4.58;;;;;;;37.55;50.56;161083.47;1773061;81;21877;-78
2021/06/15 04:44:12;;;;;;;6.28;4.33;;;;;;;37.60;50.52;161096.89;1773013;81;21864;-78
2021/06/15 04:46:47;;;;;;;4.83;4.12;;;;;;;37.60;50.50;161098.20;1772889;81;21741;-78
2021/06/15 04:49:29;;;;;;;4.90;4.00;;;;;;;37.53;50.65;161078.11;1772791;80;21702;-77
2021/06/15 04:52:04;;;;;;;4.28;3.87;;;;;;;37.53;50.68;161078.11;1771555;81;21210;-76
2021/06/15 04:54:39;;;;;;;5.25;4.75;;;;;;;37.60;50.58;161096.89;1772649;81;21329;-76
2021/06/15 04:57:14;;;;;;;4.97;4.25;;;;;;;37.64;50.49;161107.58;1770760;81;21314;-77
2021/06/15 04:59:49;;;;;;;4.92;4.40;;;;;;;37.63;50.54;161106.25;1771742;81;21365;-77
2021/06/15 05:02:22;;;;;;;5.10;4.45;;;;;;;37.87;50.10;161170.59;1772738;81;21317;-77
2021/06/15 05:04:55;;;;;;;5.05;3.92;;;;;;;38.08;49.60;161228.17;1771925;81;21335;-77
2021/06/15 05:07:27;;;;;;;5.05;4.42;;;;;;;38.14;49.40;161242.91;1771033;81;21733;-77
2021/06/15 05:10:03;;;;;;;4.92;4.10;;;;;;;38.17;49.34;161252.33;1771633;81;21179;-78
2021/06/15 05:12:39;;;;;;;4.17;3.77;;;;;;;38.20;49.31;161259.02;1770650;81;21218;-78
2021/06/15 05:15:13;;;;;;;4.50;4.10;;;;;;;38.23;49.51;161267.13;1770301;80;21702;-77
2021/06/15 05:17:50;;;;;;;4.00;3.60;;;;;;;38.19;49.63;161257.70;1770729;81;21214;-77
2021/06/15 05:20:24;;;;;;;5.72;3.47;;;;;;;38.21;49.76;161263.02;1771444;81;21828;-78
2021/06/15 05:23:09;;;;;;;3.65;3.35;;;;;;;38.29;49.68;161284.53;1771682;81;21407;-78
2021/06/15 05:25:43;;;;;;;4.42;3.35;;;;;;;38.34;49.58;161297.91;1760959;81;21332;-77
2021/06/15 05:28:16;;;;;;;3.70;3.30;;;;;;;38.38;49.41;161308.64;1772083;81;21364;-77
2021/06/15 05:30:49;;;;;;;4.33;3.65;;;;;;;38.43;49.37;161320.70;1772086;81;21718;-77
2021/06/15 05:33:21;;;;;;;3.58;3.27;;;;;;;38.38;49.51;161308.64;1770600;81;21242;-76
2021/06/15 05:35:54;;;;;;;5.05;3.50;;;;;;;38.41;49.63;161315.33;1771593;80;21686;-76
2021/06/15 05:38:26;;;;;;;4.47;3.45;;;;;;;38.36;49.81;161301.97;1771700;81;21898;-76
2021/06/15 05:41:00;;;;;;;3.65;3.25;;;;;;;38.28;50.08;161281.84;1770498;81;21218;-76
2021/06/15 05:43:32;;;;;;;5.33;3.85;;;;;;;38.37;49.90;161305.97;1771143;81;21737;-76
2021/06/15 05:46:04;;;;;;;3.85;3.50;;;;;;;38.40;49.78;161314.02;1772034;81;21190;-76
2021/06/15 05:48:37;;;;;;;4.25;3.47;;;;;;;38.55;49.46;161352.86;1772108;81;21892;-76
2021/06/15 05:51:09;;;;;;;4.22;3.42;;;;;;;38.81;49.12;161422.61;1771366;80;21282;-76
2021/06/15 05:53:42;;;;;;;5.42;3.70;;;;;;;38.88;49.25;161441.36;1770502;81;21295;-76
2021/06/15 05:56:14;;;;;;;6.53;3.50;;;;;;;38.94;48.58;161457.47;1771682;81;21242;-76
2021/06/15 05:58:46;;;;;;;4.10;3.65;;;;;;;38.92;48.68;161452.11;1771110;81;21167;-76
2021/06/15 06:01:18;;;;;;;7.83;3.22;;;;;;;38.90;48.75;161446.73;1771182;81;21309;-76
2021/06/15 06:04:04;;;;;;;4.20;3.30;;;;;;;38.73;49.18;161402.50;1771987;81;21782;-76
2021/06/15 06:09:15;;;;;;;3.40;3.10;;;;;;;38.80;49.31;161421.25;1772265;81;21356;-76
2021/06/15 06:11:47;;;;;;;2.95;2.70;;;;;;;38.78;49.46;161414.56;1771991;81;21258;-76
2021/06/15 06:14:21;;;;;;;3.58;2.83;;;;;;;38.84;49.58;161430.62;1772026;81;21163;-76
2021/06/15 06:16:54;;;;;;;4.70;3.08;;;;;;;38.91;49.49;161449.42;1771988;79;21195;-76
2021/06/15 06:19:26;;;;;;;3.40;3.10;;;;;;;39.07;49.32;161494.97;1772442;81;21297;-76
2021/06/15 06:21:59;;;;;;;3.40;2.95;;;;;;;39.07;49.37;161493.64;1770529;81;21210;-76
2021/06/15 06:24:31;;;;;;;3.77;3.20;;;;;;;39.14;49.40;161512.44;1771622;81;21183;-76
2021/06/15 06:27:04;;;;;;;3.72;3.20;;;;;;;39.26;49.26;161544.63;1770713;79;21582;-76
2021/06/15 06:29:36;;;;;;;5.40;3.42;;;;;;;39.43;49.11;161590.23;1771277;81;21175;-77
2021/06/15 06:32:09;;;;;;;3.72;3.22;;;;;;;39.33;49.29;161563.44;1772081;81;21258;-76
2021/06/15 06:34:41;;;;;;;5.28;2.98;;;;;;;39.40;49.23;161583.55;1771361;81;21856;-76
2021/06/15 06:37:15;;;;;;;4.55;3.15;;;;;;;39.40;49.27;161582.17;1770814;81;21206;-76
2021/06/15 06:39:48;;;;;;;3.25;2.90;;;;;;;39.58;49.06;161630.53;1770579;81;21266;-76
2021/06/15 06:42:20;;;;;;;3.30;3.00;;;;;;;39.51;49.28;161613.09;1771795;81;21356;-76
2021/06/15 06:44:53;;;;;;;3.40;3.10;;;;;;;39.52;49.36;161615.78;1771378;81;21218;-76
2021/06/15 06:47:25;;;;;;;3.60;3.10;;;;;;;39.58;49.35;161630.53;1770667;81;21210;-76
2021/06/15 06:49:58;;;;;;;3.50;3.10;;;;;;;39.72;49.21;161668.03;1772532;81;21352;-76
2021/06/15 06:52:30;;;;;;;3.85;3.30;;;;;;;39.86;48.94;161706.97;1771633;80;21841;-76
2021/06/15 06:55:03;;;;;;;3.33;2.65;;;;;;;39.71;49.27;161666.72;1770524;81;21242;-76
2021/06/15 06:57:35;;;;;;;3.17;2.60;;;;;;;39.89;49.17;161713.66;1770635;81;21337;-76
2021/06/15 07:00:09;;;;;;;2.40;2.20;;;;;;;39.86;49.37;161705.59;1771914;81;21348;-76
2021/06/15 07:02:41;;;;;;;3.52;2.95;;;;;;;39.86;49.37;161705.59;1771045;81;21199;-79
2021/06/15 07:05:14;;;;;;;5.12;2.98;;;;;;;39.96;49.36;161735.16;1770831;81;21174;-77
2021/06/15 07:07:47;;;;;;;3.40;2.60;;;;;;;40.01;49.17;161748.59;1772910;81;21864;-76
2021/06/15 07:10:20;;;;;;;3.67;2.62;;;;;;;40.09;49.25;161770.03;1771637;81;21232;-76
2021/06/15 07:12:52;;;;;;;4.17;3.02;;;;;;;40.09;49.25;161770.03;1771748;81;21782;-76
2021/06/15 07:15:25;;;;;;;3.10;2.80;;;;;;;40.23;49.21;161807.61;1770576;81;21274;-76
2021/06/15 07:17:57;;;;;;;4.17;3.45;;;;;;;40.24;49.33;161810.30;1771754;81;21194;-76
2021/06/15 07:20:29;;;;;;;3.98;2.85;;;;;;;40.29;49.53;161822.37;1770594;81;21182;-76
2021/06/15 07:23:01;;;;;;;3.85;3.35;;;;;;;40.29;49.53;161822.37;1771540;81;21182;-76
2021/06/15 07:25:34;;;;;;;4.80;3.25;;;;;;;40.28;49.66;161821.00;1770740;81;21160;-76
2021/06/15 07:28:07;;;;;;;2.83;2.60;;;;;;;40.28;49.66;161821.00;1771670;81;21507;-76
2021/06/15 07:30:39;;;;;;;4.65;2.87;;;;;;;40.47;49.77;161870.69;1770713;81;21223;-76
2021/06/15 07:33:14;;;;;;;4.35;2.83;;;;;;;40.53;49.89;161888.14;1770583;80;21175;-76
2021/06/15 07:35:46;;;;;;;3.45;2.72;;;;;;;40.70;49.96;161932.41;1771264;81;21727;-76
2021/06/15 07:38:18;;;;;;;3.50;3.20;;;;;;;40.70;49.96;161932.41;1772246;81;21353;-76
2021/06/15 07:40:50;;;;;;;4.05;2.90;;;;;;;40.60;49.83;161905.59;1770728;81;21215;-76
2021/06/15 07:43:23;;;;;;;2.90;2.70;;;;;;;40.65;49.42;161919.03;1770808;81;21828;-76
2021/06/15 07:45:55;;;;;;;3.37;3.00;;;;;;;40.65;49.42;161919.03;1771526;81;21217;-77
2021/06/15 07:48:27;;;;;;;3.22;2.50;;;;;;;40.67;49.69;161925.72;1770545;81;21222;-76
2021/06/15 07:50:59;;;;;;;3.27;2.98;;;;;;;40.65;49.84;161920.34;1772228;81;21333;-77
2021/06/15 07:53:33;;;;;;;3.30;2.83;;;;;;;40.71;49.81;161936.47;1762049;80;21147;-77
2021/06/15 07:56:05;;;;;;;3.17;2.87;;;;;;;40.90;49.41;161987.50;1773290;80;21329;-76
2021/06/15 07:58:37;;;;;;;3.40;2.85;;;;;;;40.97;49.31;162006.33;1773370;81;21777;-77
2021/06/15 08:01:10;;;;;;;4.22;2.67;;;;;;;41.20;48.98;162068.13;1773514;81;21847;-77
2021/06/15 08:03:42;;;;;;;4.50;3.10;;;;;;;41.15;48.85;162054.69;1773223;81;21860;-77
2021/06/15 08:06:15;;;;;;;3.90;2.80;;;;;;;41.16;48.88;162057.38;1773202;81;21864;-77
2021/06/15 08:08:47;;;;;;;4.92;3.00;;;;;;;41.28;48.64;162090.91;1773222;81;21198;-77
2021/06/15 08:11:21;;;;;;;2.95;2.70;;;;;;;41.24;48.71;162078.83;1771730;80;21191;-77
2021/06/15 08:13:54;;;;;;;3.08;2.77;;;;;;;41.19;48.99;162065.44;1770624;81;21361;-76
2021/06/15 08:16:26;;;;;;;3.20;2.90;;;;;;;41.23;48.99;162076.14;1770700;81;21357;-76
2021/06/15 08:18:58;;;;;;;3.00;2.60;;;;;;;41.29;49.02;162092.28;1770419;81;21217;-76
2021/06/15 08:21:31;;;;;;;3.10;2.72;;;;;;;41.32;48.99;162100.34;1770798;81;21183;-77
2021/06/15 08:24:04;;;;;;;3.70;3.05;;;;;;;41.40;49.00;162121.81;1772981;81;21301;-77
2021/06/15 08:26:36;;;;;;;4.42;2.80;;;;;;;41.47;48.96;162140.58;1772097;81;21532;-76
2021/06/15 08:29:08;;;;;;;2.98;2.70;;;;;;;41.55;48.93;162163.47;1771192;81;21229;-76
2021/06/15 08:31:41;;;;;;;3.50;3.00;;;;;;;41.51;49.08;162152.66;1773010;79;21726;-77
2021/06/15 08:34:13;;;;;;;4.65;2.77;;;;;;;41.49;49.38;162147.33;1771292;80;21166;-77
2021/06/15 08:36:47;;;;;;;3.20;2.70;;;;;;;41.67;49.27;162195.69;1770505;81;21186;-77
2021/06/15 08:39:19;;;;;;;3.50;2.70;;;;;;;41.71;49.29;162206.45;1771314;81;21183;-77
2021/06/15 08:41:52;;;;;;;7.45;2.70;;;;;;;41.74;49.44;162213.16;1771957;81;21186;-77
2021/06/15 08:44:25;;;;;;;3.30;2.67;;;;;;;41.84;49.33;162240.00;1772938;81;21270;-77
2021/06/15 08:46:57;;;;;;;5.03;2.67;;;;;;;41.85;49.38;162242.69;1772877;81;21368;-76
2021/06/15 08:49:29;;;;;;;3.70;2.62;;;;;;;41.91;49.33;162260.16;1772431;81;21385;-77
2021/06/15 08:52:02;;;;;;;2.95;2.75;;;;;;;42.04;49.11;162296.44;1771619;80;21237;-77
2021/06/15 08:54:34;;;;;;;3.50;2.70;;;;;;;42.04;49.21;162296.44;1771449;80;21329;-77
2021/06/15 08:57:06;;;;;;;3.22;2.47;;;;;;;42.02;49.41;162291.06;1771582;81;21246;-76
2021/06/15 08:59:39;;;;;;;3.10;2.80;;;;;;;42.11;49.43;162313.91;1770378;81;21226;-77
2021/06/15 09:02:11;;;;;;;2.85;2.62;;;;;;;42.11;49.58;162313.91;1771523;81;21190;-77
2021/06/15 09:04:44;;;;;;;2.52;2.33;;;;;;;42.23;49.44;162347.52;1770476;81;21167;-77
2021/06/15 09:07:16;;;;;;;4.83;2.75;;;;;;;42.33;49.46;162374.37;1772802;81;21721;-77
2021/06/15 09:09:50;;;;;;;2.72;2.52;;;;;;;42.26;49.58;162355.53;1770586;81;21717;-77
2021/06/15 09:12:23;;;;;;;3.00;2.65;;;;;;;42.24;49.76;162350.20;1771514;80;21201;-76
2021/06/15 09:14:57;;;;;;;3.02;2.72;;;;;;;42.35;49.67;162379.81;1770595;81;21745;-76
2021/06/15 09:17:34;;;;;;;5.17;2.77;;;;;;;42.43;49.54;162401.28;1770535;81;21167;-76
2021/06/15 09:20:19;;;;;;;2.80;2.60;;;;;;;42.58;49.18;162441.61;1760996;81;21214;-77
2021/06/15 09:23:11;;;;;;;4.60;2.70;;;;;;;42.50;49.19;162420.08;1772871;81;21313;-76
2021/06/15 09:25:44;;;;;;;3.00;2.70;;;;;;;42.60;48.95;162446.94;1772956;81;21218;-76
2021/06/15 09:28:20;;;;;;;3.00;2.70;;;;;;;42.66;48.82;162461.72;1736406;81;21361;-77
2021/06/15 09:31:01;;;;;;;7.45;2.52;;;;;;;42.69;48.77;162469.78;1771230;81;21365;-77
2021/06/15 09:33:46;;;;;;;4.05;2.50;;;;;;;42.69;48.82;162469.78;1771316;81;21313;-77
2021/06/15 09:36:29;;;;;;;3.92;2.72;;;;;;;42.74;48.69;162484.62;1771685;81;21849;-76
2021/06/15 09:39:03;;;;;;;3.45;3.15;;;;;;;42.91;48.34;162530.33;1771600;81;21369;-77
2021/06/15 09:41:44;;;;;;;3.10;2.65;;;;;;;42.83;48.36;162508.80;1771572;81;21474;-76
2021/06/15 09:44:25;;;;;;;5.00;2.52;;;;;;;42.82;48.36;162506.16;1772162;81;21278;-77
2021/06/15 09:47:00;;;;;;;3.80;2.95;;;;;;;42.88;48.15;162522.25;1770802;81;21221;-77
2021/06/15 09:49:41;;;;;;;3.12;2.85;;;;;;;42.97;47.83;162547.80;1771406;81;21395;-77
2021/06/15 09:52:32;;;;;;;3.42;2.40;;;;;;;43.00;47.64;162555.81;1771988;81;21180;-77
2021/06/15 09:55:09;;;;;;;4.12;2.60;;;;;;;42.97;47.49;162546.42;1771778;80;21381;-76
2021/06/15 09:57:44;;;;;;;3.25;2.62;;;;;;;43.00;47.24;162554.50;1771299;81;22487;-77
2021/06/15 10:00:20;;;;;;;3.30;2.77;;;;;;;43.04;46.90;162566.59;1771135;81;21742;-77
2021/06/15 10:03:00;;;;;;;3.00;2.70;;;;;;;43.02;46.92;162559.89;1771255;81;21336;-77
2021/06/15 10:05:35;;;;;;;2.65;2.45;;;;;;;42.90;46.96;162527.63;1771397;81;21246;-77
2021/06/15 10:08:13;;;;;;;2.87;2.58;;;;;;;42.90;46.99;162528.95;1771178;81;21147;-78
2021/06/15 10:10:48;;;;;;;3.47;2.90;;;;;;;42.99;46.96;162551.81;1772251;80;21234;-77
2021/06/15 10:13:21;;;;;;;3.50;2.58;;;;;;;43.10;46.83;162581.37;1771043;80;21270;-76
2021/06/15 10:15:54;;;;;;;3.00;2.50;;;;;;;43.14;46.68;162592.19;1772002;81;21318;-77
2021/06/15 10:18:28;;;;;;;3.02;2.40;;;;;;;43.19;46.53;162605.59;1772054;81;21269;-77
2021/06/15 10:21:01;;;;;;;3.27;2.40;;;;;;;43.26;46.41;162625.78;1772738;81;21198;-77
2021/06/15 10:23:33;;;;;;;2.80;2.50;;;;;;;43.38;46.13;162656.70;1772847;81;22420;-77
2021/06/15 10:26:07;;;;;;;2.72;2.30;;;;;;;43.49;46.11;162686.28;1772762;80;21189;-77
2021/06/15 10:28:39;;;;;;;3.08;2.42;;;;;;;43.51;46.23;162691.72;1771228;80;21187;-77
2021/06/15 10:31:11;;;;;;;3.20;2.55;;;;;;;43.50;46.15;162690.34;1772110;81;21710;-77
2021/06/15 10:33:49;;;;;;;2.70;2.50;;;;;;;43.50;46.11;162688.97;1771892;80;21210;-76
2021/06/15 10:36:40;;;;;;;2.70;2.50;;;;;;;43.61;45.97;162718.59;1772281;81;21647;-77
2021/06/15 10:39:40;;;;;;;3.60;2.58;;;;;;;43.62;45.77;162722.61;1771468;80;21787;-77
2021/06/15 10:42:21;;;;;;;2.80;2.50;;;;;;;43.68;45.49;162737.39;1755832;81;21381;-77
2021/06/15 10:45:08;;;;;;;5.83;3.15;;;;;;;43.61;45.52;162719.91;1770768;80;21519;-76
2021/06/15 10:47:41;;;;;;;4.10;3.50;;;;;;;43.62;45.44;162721.28;1764257;81;21840;-77
2021/06/15 10:50:13;;;;;;;3.85;3.10;;;;;;;43.60;45.34;162717.22;1771530;81;21722;-77
2021/06/15 10:53:08;;;;;;;5.83;3.47;;;;;;;43.67;45.10;162734.70;1771229;80;21366;-77
2021/06/15 10:55:54;;;;;;;3.95;3.08;;;;;;;43.63;44.98;162725.30;1772771;80;21281;-77
2021/06/15 10:58:53;;;;;;;3.77;3.20;;;;;;;43.60;44.84;162717.22;1773281;80;21943;-77
2021/06/15 11:01:28;;;;;;;3.58;2.70;;;;;;;43.62;44.79;162722.61;1772751;80;21883;-77
2021/06/15 11:04:09;;;;;;;3.12;2.83;;;;;;;43.58;44.81;162711.84;1773114;81;21209;-77
2021/06/15 11:06:47;;;;;;;3.10;2.80;;;;;;;43.55;44.55;162702.44;1773235;81;21674;-77
2021/06/15 11:09:25;;;;;;;3.33;3.02;;;;;;;43.60;44.41;162715.91;1773026;81;21207;-77
2021/06/15 11:12:08;;;;;;;3.75;3.10;;;;;;;43.54;44.57;162699.75;1773241;81;21650;-77
2021/06/15 11:14:41;;;;;;;3.30;3.00;;;;;;;43.49;44.59;162687.59;1773296;81;21349;-77
2021/06/15 11:17:14;;;;;;;3.50;3.20;;;;;;;43.49;44.55;162687.59;1772893;81;21604;-77
2021/06/15 11:19:46;;;;;;;4.92;3.10;;;;;;;43.54;44.37;162699.75;1762496;81;21290;-77
2021/06/15 11:22:20;;;;;;;3.85;3.37;;;;;;;43.52;44.37;162694.41;1772989;81;21265;-77
2021/06/15 11:25:00;;;;;;;4.25;3.42;;;;;;;43.48;44.39;162684.91;1772963;81;21345;-76
2021/06/15 11:27:31;;;;;;;3.20;2.90;;;;;;;43.37;44.60;162655.34;1773098;80;21302;-77
2021/06/15 11:30:18;;;;;;;4.50;3.55;;;;;;;43.36;44.64;162652.64;1773084;81;22107;-77
2021/06/15 11:33:02;;;;;;;5.55;3.15;;;;;;;43.36;44.70;162651.31;1772762;81;21321;-76
2021/06/15 11:35:42;;;;;;;3.83;3.40;;;;;;;43.39;44.61;162660.72;1773089;81;21359;-76
2021/06/15 11:38:17;;;;;;;4.50;4.08;;;;;;;43.35;44.62;162648.63;1773360;81;21416;-77
2021/06/15 11:40:49;;;;;;;6.15;4.10;;;;;;;43.31;44.67;162637.86;1773011;81;21313;-77
2021/06/15 11:43:22;;;;;;;5.47;4.80;;;;;;;43.27;44.77;162627.14;1773052;81;21420;-77
2021/06/15 11:45:57;;;;;;;6.67;4.60;;;;;;;43.22;44.83;162613.69;1773253;81;21845;-77
2021/06/15 11:48:33;;;;;;;5.03;4.53;;;;;;;43.19;44.90;162606.97;1773161;81;21321;-76
2021/06/15 11:51:07;;;;;;;5.12;4.60;;;;;;;43.20;44.91;162608.30;1772952;81;21215;-77
2021/06/15 11:53:41;;;;;;;6.17;4.78;;;;;;;43.23;44.90;162617.69;1772892;81;21373;-77
2021/06/15 11:56:15;;;;;;;4.70;4.10;;;;;;;43.43;44.52;162671.50;1773044;81;21309;-77
2021/06/15 11:58:54;;;;;;;6.00;4.50;;;;;;;43.45;44.46;162675.50;1772965;81;21234;-77
2021/06/15 12:01:22;;;;;;;5.22;4.40;;;;;;;43.43;44.34;162670.13;1772889;79;21745;-77
2021/06/15 12:03:54;;;;;;;6.40;4.30;;;;;;;43.39;44.13;162660.72;1772828;81;21321;-77
2021/06/15 12:06:27;;;;;;;6.62;3.92;;;;;;;43.41;44.07;162666.11;1773182;81;21849;-77